CheckWX is a tool to help pilots better visualize weather data.  It is not intended as a substitute for an official pre-flight weather briefing.

19:28:21 UTC

KCHO METAR
Charlottesville-Albemarle Airport
Charlottesville, Virginia, USA
Current

35 mins ago

KCHO 221853Z 00000KT 10SM OVC027 09/02 A3036 RMK AO2 SLP281 T00890017
Observed
Feb-22 @ 18:53 UTC
Visibility
10 SM
Flight Rules
MVFR
Cloud Levels
  • Overcast at 2,700' AGL
Temperature
C / 48°F
Dewpoint
C / 36°F
Humidity
62%
Altimeter
30.36" Hg
Pressure
1028.1 hPa
Previous

1 hour ago

KCHO 221827Z VRB03KT 10SM OVC029 09/02 A3035 RMK AO2 T00940017
Observed
Feb-22 @ 18:27 UTC
Wind
  • Variable at 3 KTS
Visibility
10 SM
Flight Rules
MVFR
Cloud Levels
  • Overcast at 2,900' AGL
Temperature
C / 48°F
Dewpoint
C / 36°F
Humidity
62%
Altimeter
30.35" Hg
Pressure
1027.82 hPa
Previous

1 hour ago

KCHO 221809Z VRB03KT 10SM OVC031 09/02 A3036 RMK AO2 T00940017
Observed
Feb-22 @ 18:09 UTC
Wind
  • Variable at 3 KTS
Visibility
10 SM
Flight Rules
VFR
Cloud Levels
  • Overcast at 3,100' AGL
Temperature
C / 48°F
Dewpoint
C / 36°F
Humidity
62%
Altimeter
30.36" Hg
Pressure
1028.12 hPa